Time;durP1;ratioP1;P1;durP2;ratioP2;P2;SDS_P1;SDS_P2;PMS_P1;PMS_P2;Temp;Humidity;BMP_temperature;BMP_pressure;BME280_temperature;BME280_humidity;BME280_pressure;Samples;Min_cycle;Max_cycle;Signal;HPM_P1;HPM_P2
2023/01/15 05:22:34;;;;;;;0.30;0.30;;;;;;;8.33;100.00;98964.03;5089105;28;20335;-69
2023/01/15 05:25:02;;;;;;;0.20;0.20;;;;;;;8.29;100.00;98968.09;5089165;28;20032;-69
2023/01/15 05:27:27;;;;;;;0.20;0.20;;;;;;;8.20;100.00;98969.22;5088617;28;20044;-70
2023/01/15 05:29:52;;;;;;;1.05;0.52;;;;;;;8.25;100.00;98973.97;5089002;28;20040;-69
2023/01/15 05:32:18;;;;;;;1.13;0.50;;;;;;;8.20;100.00;98986.97;5089335;28;20119;-70
2023/01/15 05:34:43;;;;;;;0.70;0.40;;;;;;;8.13;100.00;98985.06;5088877;28;20033;-68
2023/01/15 05:37:08;;;;;;;0.38;0.38;;;;;;;8.11;100.00;98996.88;5088601;28;20086;-69
2023/01/15 05:39:34;;;;;;;0.22;0.22;;;;;;;8.09;100.00;98998.91;5088701;28;20515;-68
2023/01/15 05:42:01;;;;;;;0.73;0.30;;;;;;;7.94;100.00;98995.44;5088756;28;20047;-67
2023/01/15 05:44:29;;;;;;;1.65;0.20;;;;;;;7.91;100.00;98998.50;5088702;28;20036;-68
2023/01/15 05:46:57;;;;;;;0.15;0.15;;;;;;;7.71;100.00;99001.72;5088420;28;20028;-68
2023/01/15 05:49:25;;;;;;;0.65;0.50;;;;;;;7.72;100.00;99011.31;5088315;28;20043;-69
2023/01/15 05:51:52;;;;;;;3.25;0.95;;;;;;;7.74;100.00;99003.16;5088487;28;20510;-69
2023/01/15 05:54:20;;;;;;;0.32;0.32;;;;;;;7.59;100.00;99008.50;5088446;28;20043;-69
2023/01/15 05:56:47;;;;;;;0.68;0.60;;;;;;;7.58;100.00;98998.91;5088377;28;20073;-69
2023/01/15 05:59:14;;;;;;;1.40;0.40;;;;;;;7.55;100.00;99008.03;5088045;28;20123;-68
2023/01/15 06:01:40;;;;;;;2.37;0.83;;;;;;;7.43;100.00;99003.38;5088557;28;20039;-69
2023/01/15 06:04:06;;;;;;;1.02;0.45;;;;;;;7.34;100.00;99003.47;5088228;28;20305;-69
2023/01/15 06:06:33;;;;;;;0.40;0.40;;;;;;;7.30;100.00;99004.84;5088708;28;20142;-69
2023/01/15 06:08:59;;;;;;;0.50;0.25;;;;;;;7.25;100.00;99020.47;5087848;28;20044;-69
2023/01/15 06:11:24;;;;;;;0.28;0.28;;;;;;;7.24;100.00;99032.06;5087950;28;20717;-69
2023/01/15 06:13:50;;;;;;;1.50;0.77;;;;;;;7.22;100.00;99036.69;5088127;28;20150;-69
2023/01/15 06:16:17;;;;;;;0.45;0.20;;;;;;;7.13;100.00;99053.69;5087967;28;20032;-68
2023/01/15 06:18:43;;;;;;;0.20;0.20;;;;;;;7.06;100.00;99050.13;5087602;28;20040;-69
2023/01/15 06:21:11;;;;;;;0.55;0.50;;;;;;;7.08;100.00;99064.00;5086580;28;20047;-69
2023/01/15 06:23:37;;;;;;;;;;;;;;;7.01;100.00;99066.53;5088338;28;20105;-69
2023/01/15 06:26:14;;;;;;;0.55;0.35;;;;;;;6.88;100.00;99076.09;5087765;28;19916;-68
2023/01/15 06:28:40;;;;;;;0.40;0.40;;;;;;;6.85;100.00;99074.63;5087575;28;20044;-68
2023/01/15 06:31:12;;;;;;;0.95;0.75;;;;;;;6.86;100.00;99078.91;5087739;28;20123;-68
2023/01/15 06:33:37;;;;;;;0.30;0.30;;;;;;;6.88;100.00;99079.53;5075888;28;20039;-68
2023/01/15 06:36:08;;;;;;;0.63;0.55;;;;;;;6.79;100.00;99085.91;5074146;28;20115;-69
2023/01/15 06:38:34;;;;;;;0.45;0.38;;;;;;;6.77;100.00;99099.31;5073842;28;20043;-68
2023/01/15 06:41:00;;;;;;;0.20;0.20;;;;;;;6.72;100.00;99101.69;5074102;28;20025;-68
2023/01/15 06:48:54;;;;;;;1.45;0.40;;;;;;;6.62;100.00;99116.94;5073807;28;20075;-68
2023/01/15 06:51:20;;;;;;;0.45;0.45;;;;;;;6.70;100.00;99127.47;5073790;28;20083;-68
2023/01/15 06:53:46;;;;;;;0.65;0.40;;;;;;;6.61;100.00;99125.06;5073929;28;20068;-68
2023/01/15 06:56:14;;;;;;;0.20;0.20;;;;;;;6.64;100.00;99143.22;5073989;28;20119;-69
2023/01/15 06:58:41;;;;;;;0.20;0.20;;;;;;;6.61;100.00;99156.81;5073527;28;20066;-68
2023/01/15 07:01:11;;;;;;;0.73;0.43;;;;;;;6.63;100.00;99166.22;5073793;28;20047;-68
2023/01/15 07:03:37;;;;;;;0.55;0.45;;;;;;;6.51;100.00;99146.44;5073677;28;20051;-68
2023/01/15 07:06:08;;;;;;;0.60;0.45;;;;;;;6.53;100.00;99158.53;5073672;28;20107;-68
2023/01/15 07:08:34;;;;;;;0.38;0.38;;;;;;;6.48;100.00;99152.91;5073377;28;20044;-68
2023/01/15 07:11:08;;;;;;;0.65;0.52;;;;;;;6.50;100.00;99172.09;5073783;28;20043;-69
2023/01/15 07:13:33;;;;;;;0.30;0.30;;;;;;;6.51;100.00;99159.69;5073584;28;20483;-68
2023/01/15 07:16:00;;;;;;;0.30;0.30;;;;;;;6.43;100.00;99179.06;5073378;28;20033;-69
2023/01/15 07:18:28;;;;;;;0.80;0.80;;;;;;;6.50;100.00;99193.25;5073156;28;20070;-69
2023/01/15 07:20:55;;;;;;;0.98;0.55;;;;;;;6.50;100.00;99173.91;5073274;28;20063;-68
2023/01/15 07:23:21;;;;;;;0.77;0.43;;;;;;;6.43;100.00;99192.28;5073526;28;20074;-69
2023/01/15 07:25:47;;;;;;;0.30;0.30;;;;;;;6.47;100.00;99192.78;5073278;28;20036;-69
2023/01/15 07:28:12;;;;;;;2.17;0.57;;;;;;;6.46;100.00;99194.59;5071794;28;20161;-67
2023/01/15 07:30:38;;;;;;;0.40;0.40;;;;;;;6.43;100.00;99187.00;5073003;28;20032;-69
2023/01/15 07:33:03;;;;;;;2.53;0.65;;;;;;;6.46;100.00;99178.72;5071923;28;20477;-69
2023/01/15 07:35:29;;;;;;;0.20;0.20;;;;;;;6.47;100.00;99196.25;5073123;28;20125;-68
2023/01/15 07:37:55;;;;;;;0.20;0.20;;;;;;;6.50;100.00;99206.47;5073815;28;20109;-59
2023/01/15 07:40:20;;;;;;;0.40;0.40;;;;;;;6.57;100.00;99208.44;5071807;28;20516;-57
2023/01/15 07:50:58;;;;;;;0.40;0.40;;;;;;;6.40;100.00;99234.97;5072764;28;20040;-66
2023/01/15 07:53:23;;;;;;;0.98;0.43;;;;;;;6.33;100.00;99249.06;5072861;28;20051;-64
2023/01/15 07:55:48;;;;;;;3.63;0.90;;;;;;;6.35;100.00;99252.34;5072636;28;20065;-64
2023/01/15 07:58:14;;;;;;;0.10;0.10;;;;;;;6.24;100.00;99254.34;5072528;28;20068;-66
2023/01/15 08:00:39;;;;;;;0.63;0.57;;;;;;;6.20;100.00;99260.97;5072791;28;20543;-65
2023/01/15 08:03:05;;;;;;;0.65;0.50;;;;;;;6.19;100.00;99269.91;5072703;28;20028;-66
2023/01/15 08:05:30;;;;;;;0.30;0.30;;;;;;;6.17;100.00;99271.88;5072546;28;20075;-65
2023/01/15 08:07:56;;;;;;;1.08;0.85;;;;;;;6.18;100.00;99273.53;5072293;28;20037;-66
2023/01/15 08:10:21;;;;;;;2.85;1.13;;;;;;;6.17;100.00;99277.16;5072395;28;20051;-65
2023/01/15 08:15:38;;;;;;;0.75;0.30;;;;;;;6.10;100.00;99291.25;5072303;28;20037;-66
2023/01/15 08:18:04;;;;;;;0.77;0.63;;;;;;;6.05;100.00;99286.44;5072119;28;20029;-65
2023/01/15 08:20:30;;;;;;;1.48;0.63;;;;;;;6.06;100.00;99296.03;5072184;28;20025;-66
2023/01/15 08:22:55;;;;;;;0.43;0.35;;;;;;;6.02;100.00;99305.31;5072215;28;20067;-66
2023/01/15 08:25:23;;;;;;;0.80;0.57;;;;;;;6.03;100.00;99308.78;5072079;28;20048;-66
2023/01/15 08:27:49;;;;;;;0.30;0.30;;;;;;;6.10;100.00;99315.84;5071801;28;20098;-64
2023/01/15 08:30:17;;;;;;;0.20;0.20;;;;;;;6.04;100.00;99319.16;5072088;28;20393;-67
2023/01/15 08:32:43;;;;;;;2.30;0.40;;;;;;;6.05;100.00;99320.00;5070787;28;20044;-65
2023/01/15 08:35:09;;;;;;;1.95;0.47;;;;;;;5.94;100.00;99337.03;5072257;28;20059;-64
2023/01/15 08:37:35;;;;;;;0.77;0.43;;;;;;;5.87;100.00;99344.78;5071750;28;20060;-66
2023/01/15 08:40:00;;;;;;;0.57;0.57;;;;;;;5.91;100.00;99324.94;5071970;28;20062;-66
2023/01/15 08:42:25;;;;;;;2.08;1.10;;;;;;;5.88;100.00;99329.72;5071964;28;20389;-66
2023/01/15 08:44:51;;;;;;;0.40;0.40;;;;;;;5.68;100.00;99330.06;5071857;28;20047;-66
2023/01/15 08:47:17;;;;;;;0.90;0.40;;;;;;;5.71;100.00;99335.00;5070245;28;20401;-66
2023/01/15 08:49:44;;;;;;;0.65;0.60;;;;;;;5.68;100.00;99351.19;5071859;28;20136;-63
2023/01/15 08:52:10;;;;;;;0.73;0.40;;;;;;;5.65;100.00;99351.50;5071678;28;20041;-65
2023/01/15 08:54:35;;;;;;;0.50;0.43;;;;;;;5.55;100.00;99345.56;5070554;28;20036;-64
2023/01/15 08:57:01;;;;;;;1.15;0.40;;;;;;;5.58;100.00;99352.31;5071342;28;20452;-63
2023/01/15 08:59:26;;;;;;;1.90;1.00;;;;;;;5.56;100.00;99351.66;5071572;28;20128;-66
2023/01/15 09:01:52;;;;;;;0.43;0.30;;;;;;;5.54;100.00;99359.75;5071645;28;20029;-64
2023/01/15 09:04:20;;;;;;;0.20;0.20;;;;;;;5.55;100.00;99365.88;5071700;28;20374;-64
2023/01/15 09:06:46;;;;;;;0.45;0.45;;;;;;;5.51;100.00;99378.56;5071791;28;20428;-65
2023/01/15 09:09:13;;;;;;;0.43;0.32;;;;;;;5.51;100.00;99383.03;5071522;28;20060;-63
2023/01/15 09:11:39;;;;;;;0.30;0.30;;;;;;;5.55;100.00;99379.06;5071485;28;20033;-65
2023/01/15 09:14:08;;;;;;;0.75;0.40;;;;;;;5.45;100.00;99369.47;5071524;28;20051;-64
2023/01/15 09:16:35;;;;;;;0.38;0.30;;;;;;;5.48;100.00;99397.38;5071575;28;20039;-66
2023/01/15 09:19:00;;;;;;;0.55;0.40;;;;;;;5.52;100.00;99411.09;5071134;28;20086;-63
2023/01/15 09:21:26;;;;;;;1.00;0.30;;;;;;;5.47;100.00;99413.38;5071707;28;20036;-65
2023/01/15 09:23:51;;;;;;;2.75;1.00;;;;;;;5.52;100.00;99419.00;5071491;28;20040;-66
2023/01/15 09:26:33;;;;;;;0.38;0.38;;;;;;;5.43;100.00;99439.31;5071362;28;20049;-65
2023/01/15 09:28:59;;;;;;;5.35;0.70;;;;;;;5.42;100.00;99427.91;5071088;28;20396;-65
2023/01/15 09:31:26;;;;;;;3.35;1.35;;;;;;;5.44;100.00;99425.94;5071371;28;20062;-66
2023/01/15 09:33:51;;;;;;;2.88;1.17;;;;;;;5.44;100.00;99435.66;5071345;28;20037;-64
2023/01/15 09:36:27;;;;;;;2.15;0.70;;;;;;;5.43;100.00;99437.47;5071297;28;20041;-66
2023/01/15 09:38:54;;;;;;;1.75;0.68;;;;;;;5.38;100.00;99442.41;5071132;28;20074;-65
2023/01/15 09:44:23;;;;;;;0.85;0.60;;;;;;;5.46;100.00;99446.91;5071239;28;20094;-65
2023/01/15 09:47:19;;;;;;;3.50;1.00;;;;;;;5.33;100.00;99452.63;5071126;28;20146;-65
2023/01/15 09:50:03;;;;;;;1.90;0.70;;;;;;;5.35;100.00;99458.59;5053835;28;20055;-65
2023/01/15 09:52:28;;;;;;;0.57;0.57;;;;;;;5.34;100.00;99458.72;5071213;28;20032;-63
2023/01/15 09:55:07;;;;;;;0.40;0.40;;;;;;;5.25;100.00;99464.97;5071175;28;20315;-64
2023/01/15 09:57:33;;;;;;;0.50;0.50;;;;;;;5.26;100.00;99483.28;5070890;28;20669;-63
2023/01/15 10:00:02;;;;;;;2.92;0.95;;;;;;;5.30;100.00;99489.91;5070937;28;20048;-64
2023/01/15 10:02:44;;;;;;;1.15;1.05;;;;;;;5.29;100.00;99485.63;5071097;28;20072;-63
2023/01/15 10:05:25;;;;;;;0.90;0.82;;;;;;;5.31;100.00;99486.28;5071044;28;20038;-63
2023/01/15 10:07:57;;;;;;;3.10;0.50;;;;;;;5.22;100.00;99489.06;5071994;28;20408;-63
2023/01/15 10:10:28;;;;;;;1.33;0.80;;;;;;;5.20;100.00;99488.38;5074900;28;20085;-64
2023/01/15 10:13:02;;;;;;;0.30;0.30;;;;;;;5.03;100.00;99495.38;5074755;28;20533;-64
2023/01/15 10:15:44;;;;;;;0.43;0.43;;;;;;;4.98;100.00;99498.47;5074645;28;20033;-64
2023/01/15 10:18:19;;;;;;;1.45;0.88;;;;;;;5.03;100.00;99522.63;5074307;28;20520;-65
2023/01/15 10:20:50;;;;;;;1.05;0.95;;;;;;;5.01;100.00;99524.56;5074551;28;20036;-64
2023/01/15 10:23:45;;;;;;;0.28;0.28;;;;;;;4.92;100.00;99543.97;5074628;28;20385;-65
2023/01/15 10:26:28;;;;;;;0.28;0.28;;;;;;;4.96;100.00;99542.69;5074457;28;20047;-64
2023/01/15 10:28:57;;;;;;;0.63;0.60;;;;;;;4.92;100.00;99541.34;5073132;28;20394;-65
2023/01/15 10:31:33;;;;;;;3.85;0.75;;;;;;;4.91;100.00;99539.69;5074326;28;20490;-63
2023/01/15 10:34:31;;;;;;;0.90;0.50;;;;;;;4.88;100.00;99537.34;5074393;28;20032;-64
2023/01/15 10:37:00;;;;;;;;;;;;;;;4.89;100.00;99544.28;5074483;28;20039;-64
2023/01/15 10:39:36;;;;;;;0.50;0.50;;;;;;;4.73;100.00;99534.44;5086043;28;19919;-65
2023/01/15 10:42:23;;;;;;;0.27;0.27;;;;;;;4.79;100.00;99539.09;5094448;28;20115;-65
2023/01/15 10:45:04;;;;;;;0.40;0.40;;;;;;;4.75;100.00;99542.19;5094832;28;20108;-64
2023/01/15 10:47:34;;;;;;;0.45;0.45;;;;;;;4.75;100.00;99545.66;5094046;28;20335;-65
2023/01/15 10:50:02;;;;;;;0.40;0.40;;;;;;;4.66;100.00;99565.03;5094301;28;20131;-63
2023/01/15 10:52:36;;;;;;;0.60;0.52;;;;;;;4.73;100.00;99563.44;5094364;28;20392;-66
2023/01/15 10:55:36;;;;;;;5.65;1.15;;;;;;;4.75;100.00;99558.00;5093002;28;20097;-64
2023/01/15 10:58:14;;;;;;;0.35;0.35;;;;;;;4.72;100.00;99564.44;5094039;28;20035;-64
2023/01/15 11:00:40;;;;;;;6.93;0.93;;;;;;;4.68;100.00;99543.78;5094257;28;20092;-64
2023/01/15 11:03:17;;;;;;;1.65;0.52;;;;;;;4.68;100.00;99556.97;5094076;28;20431;-64
2023/01/15 11:05:45;;;;;;;1.17;0.40;;;;;;;4.62;100.00;99553.94;5093997;28;20112;-64
2023/01/15 11:08:26;;;;;;;0.32;0.32;;;;;;;4.63;100.00;99560.09;5093740;28;20051;-64
2023/01/15 11:10:51;;;;;;;0.30;0.30;;;;;;;4.64;100.00;99543.28;5093872;28;20097;-64
2023/01/15 11:19:35;;;;;;;0.22;0.22;;;;;;;4.57;100.00;99523.75;5094026;28;20468;-63
2023/01/15 11:19:41;;;;;;;0.28;0.28;;;;;;;4.53;100.00;99527.66;5093504;28;20051;-63
2023/01/15 11:22:13;;;;;;;5.15;1.92;;;;;;;4.50;100.00;99520.03;5093785;28;20032;-65
2023/01/15 11:24:48;;;;;;;0.50;0.50;;;;;;;4.51;100.00;99530.47;5093651;28;20513;-65
2023/01/15 11:27:19;;;;;;;0.60;0.52;;;;;;;4.48;100.00;99504.38;5093689;28;20093;-66
2023/01/15 11:29:53;;;;;;;0.47;0.35;;;;;;;4.44;100.00;99518.03;5094419;28;20479;-65
2023/01/15 11:32:36;;;;;;;1.30;0.82;;;;;;;4.51;100.00;99535.75;5105144;22;20123;-64
2023/01/15 11:35:17;;;;;;;2.42;0.80;;;;;;;4.46;100.00;99532.72;5055156;28;20485;-64
2023/01/15 11:37:42;;;;;;;0.50;0.50;;;;;;;4.43;100.00;99519.81;5054980;28;20041;-64
2023/01/15 11:40:22;;;;;;;1.73;1.27;;;;;;;4.52;100.00;99531.28;5073287;28;20504;-64
2023/01/15 11:51:08;;;;;;;3.33;0.88;;;;;;;4.53;100.00;99539.03;5072725;28;20446;-61
2023/01/15 11:53:46;;;;;;;0.85;0.50;;;;;;;4.55;100.00;99544.97;5072870;28;20047;-64
2023/01/15 11:56:18;;;;;;;1.73;0.57;;;;;;;4.54;100.00;99538.06;5072808;28;20051;-62
2023/01/15 11:58:47;;;;;;;0.40;0.40;;;;;;;4.55;100.00;99523.88;5072505;28;20040;-62
2023/01/15 12:01:25;;;;;;;0.40;0.30;;;;;;;4.54;100.00;99526.69;5072606;28;20047;-63
2023/01/15 12:03:51;;;;;;;0.82;0.70;;;;;;;4.56;100.00;99538.75;5072638;28;20067;-65
2023/01/15 12:06:18;;;;;;;0.50;0.50;;;;;;;4.59;100.00;99538.44;5071357;28;20037;-66
2023/01/15 12:08:51;;;;;;;0.50;0.40;;;;;;;4.66;100.00;99538.66;5072513;28;20041;-64
2023/01/15 12:11:37;;;;;;;1.60;0.93;;;;;;;4.73;100.00;99546.78;5072243;28;20119;-63
2023/01/15 12:14:38;;;;;;;3.90;0.57;;;;;;;4.82;100.00;99553.78;5072469;28;20037;-62
2023/01/15 12:17:21;;;;;;;1.52;0.68;;;;;;;4.92;100.00;99545.78;5072216;28;20377;-62
2023/01/15 12:20:14;;;;;;;1.63;0.55;;;;;;;4.97;100.00;99540.88;5072278;28;20033;-61
2023/01/15 12:22:58;;;;;;;0.43;0.43;;;;;;;4.94;100.00;99542.00;5072161;28;20036;-61
2023/01/15 12:25:48;;;;;;;2.53;1.00;;;;;;;5.05;100.00;99530.38;5072197;28;20182;-62
2023/01/15 12:28:38;;;;;;;4.68;1.20;;;;;;;5.21;100.00;99532.28;5071877;28;20036;-60
2023/01/15 12:31:15;;;;;;;0.85;0.50;;;;;;;5.41;100.00;99542.47;5063683;28;20044;-58
2023/01/15 12:33:48;;;;;;;4.03;0.60;;;;;;;5.58;98.80;99539.91;5061107;28;20414;-60
2023/01/15 12:37:01;;;;;;;1.08;0.70;;;;;;;5.81;98.60;99541.00;5057859;28;20033;-60
2023/01/15 12:39:35;;;;;;;1.35;0.40;;;;;;;6.02;96.95;99543.25;4973171;28;20061;-63
2023/01/15 12:45:03;;;;;;;4.38;0.65;;;;;;;6.84;91.92;99544.16;5060133;28;20033;-45
2023/01/15 12:47:51;;;;;;;5.38;1.02;;;;;;;7.27;87.73;99536.84;5062243;28;20107;-48
2023/01/15 12:50:43;;;;;;;0.50;0.50;;;;;;;7.30;85.69;99540.00;5061208;28;20021;-62
2023/01/15 12:53:36;;;;;;;3.78;1.05;;;;;;;7.45;84.89;99545.41;5044315;28;20037;-54
2023/01/15 12:56:16;;;;;;;5.93;0.82;;;;;;;7.38;84.49;99527.72;5059652;28;20032;-50
2023/01/15 12:59:06;;;;;;;3.10;0.75;;;;;;;7.43;85.31;99518.22;5044091;28;20428;-63
2023/01/15 13:01:51;;;;;;;0.35;0.30;;;;;;;7.38;85.01;99530.34;5062011;28;20294;-62
2023/01/15 13:04:28;;;;;;;0.50;0.40;;;;;;;7.50;84.68;99521.88;5048436;28;20047;-61
2023/01/15 13:07:00;;;;;;;1.13;0.70;;;;;;;7.78;83.62;99522.25;5061429;28;20086;-63
2023/01/15 13:09:46;;;;;;;1.58;0.60;;;;;;;7.69;81.88;99520.63;5041850;28;20061;-63
2023/01/15 13:12:16;;;;;;;2.92;0.90;;;;;;;7.86;81.47;99514.25;5060694;28;20029;-63
2023/01/15 13:14:42;;;;;;;0.90;0.75;;;;;;;8.00;80.01;99517.16;5060461;28;20056;-65
2023/01/15 13:17:19;;;;;;;0.98;0.65;;;;;;;7.90;80.53;99517.41;5060089;28;20032;-62
2023/01/15 13:20:09;;;;;;;1.95;0.63;;;;;;;7.92;82.37;99523.34;5060403;28;20498;-63
2023/01/15 13:22:49;;;;;;;0.50;0.50;;;;;;;7.88;79.82;99524.69;5061066;28;20071;-64
2023/01/15 13:25:41;;;;;;;0.95;0.40;;;;;;;7.80;77.04;99517.59;5061206;28;20104;-63
2023/01/15 13:28:30;;;;;;;1.42;0.73;;;;;;;7.87;78.48;99528.34;5062246;28;20040;-62
2023/01/15 13:31:34;;;;;;;1.80;0.45;;;;;;;7.90;77.56;99535.97;5061040;28;20063;-60
2023/01/15 13:34:06;;;;;;;0.30;0.30;;;;;;;7.95;77.92;99530.94;5060240;28;20044;-63
2023/01/15 13:36:39;;;;;;;0.40;0.40;;;;;;;7.96;77.59;99526.50;5060393;28;20497;-63
2023/01/15 13:39:10;;;;;;;0.57;0.40;;;;;;;7.75;78.57;99538.50;5059704;28;20140;-64
2023/01/15 13:44:22;;;;;;;0.63;0.50;;;;;;;7.45;78.82;99534.81;5065116;28;20435;-62
2023/01/15 13:47:06;;;;;;;2.55;0.60;;;;;;;7.47;79.48;99538.09;5064270;28;20116;-61
2023/01/15 13:49:36;;;;;;;0.40;0.40;;;;;;;7.37;79.91;99541.94;5064795;28;20033;-62
2023/01/15 13:52:05;;;;;;;1.50;0.93;;;;;;;7.39;80.84;99556.69;5064133;28;20082;-60
2023/01/15 13:54:39;;;;;;;1.75;0.60;;;;;;;7.47;81.08;99561.13;5063839;28;20075;-61
2023/01/15 13:57:22;;;;;;;0.55;0.52;;;;;;;7.54;79.33;99567.41;5046015;28;20043;-60
2023/01/15 13:59:49;;;;;;;0.65;0.55;;;;;;;7.50;78.31;99563.44;5065617;28;20044;-62
2023/01/15 14:02:36;;;;;;;2.63;1.30;;;;;;;7.45;80.80;99569.25;5064355;28;20020;-63
2023/01/15 14:05:26;;;;;;;1.30;0.30;;;;;;;7.30;80.12;99581.53;5065065;28;20371;-62
2023/01/15 14:07:52;;;;;;;0.40;0.40;;;;;;;7.20;82.41;99563.16;5064096;28;21048;-63
2023/01/15 14:10:19;;;;;;;1.30;0.50;;;;;;;7.03;83.76;99580.88;5046716;28;20040;-62
2023/01/15 14:39:50;;;;;;;0.73;0.65;;;;;;;6.29;94.92;99613.56;5354290;23;20734;-69
2023/01/15 14:45:26;;;;;;;0.82;0.68;;;;;;;6.28;92.43;99613.72;4995167;28;20034;-69
2023/01/15 14:47:57;;;;;;;0.40;0.40;;;;;;;6.25;92.00;99613.03;4994201;28;20431;-67
2023/01/15 14:50:32;;;;;;;0.40;0.40;;;;;;;6.24;92.10;99621.16;4995024;28;20038;-67
2023/01/15 14:53:09;;;;;;;2.75;0.60;;;;;;;6.24;91.51;99621.16;4994907;28;20062;-66
2023/01/15 14:55:40;;;;;;;0.43;0.43;;;;;;;6.24;92.41;99619.31;4977561;28;20092;-66
2023/01/15 14:58:15;;;;;;;1.27;0.60;;;;;;;6.20;93.32;99604.78;4994589;28;20084;-67
2023/01/15 15:00:45;;;;;;;0.40;0.40;;;;;;;6.17;92.99;99604.25;4995752;28;20188;-65
2023/01/15 15:03:18;;;;;;;1.98;0.57;;;;;;;6.10;91.49;99609.38;4994820;28;20553;-66
2023/01/15 15:05:45;;;;;;;1.08;0.88;;;;;;;6.09;91.48;99597.13;4994798;28;20125;-66
2023/01/15 15:08:13;;;;;;;2.63;0.40;;;;;;;6.07;92.08;99599.13;4994302;28;20027;-66
2023/01/15 15:10:44;;;;;;;0.35;0.35;;;;;;;6.12;92.00;99602.09;4994457;28;20288;-66
2023/01/15 15:13:34;;;;;;;1.15;0.70;;;;;;;6.16;92.15;99613.19;4994612;28;20050;-67
2023/01/15 15:16:06;;;;;;;1.88;0.70;;;;;;;6.12;91.80;99596.81;4994524;28;20031;-66
2023/01/15 15:18:46;;;;;;;0.60;0.60;;;;;;;6.17;91.14;99601.63;4994354;28;20034;-67
2023/01/15 15:21:24;;;;;;;1.38;0.60;;;;;;;6.21;90.95;99597.69;4994508;28;20034;-66
2023/01/15 15:24:11;;;;;;;2.05;0.70;;;;;;;6.21;90.94;99593.22;4977143;28;20058;-66
2023/01/15 15:26:38;;;;;;;0.65;0.60;;;;;;;6.32;85.73;99597.34;4994530;28;20066;-66
2023/01/15 15:29:04;;;;;;;0.75;0.50;;;;;;;6.32;87.23;99589.41;4993912;28;20506;-66
2023/01/15 15:31:39;;;;;;;0.40;0.40;;;;;;;6.35;85.05;99583.00;4994114;28;20038;-65
2023/01/15 15:34:06;;;;;;;0.50;0.50;;;;;;;6.34;84.59;99582.16;4994146;28;20046;-67
2023/01/15 15:36:35;;;;;;;0.23;0.23;;;;;;;6.49;81.90;99585.00;4976606;28;20029;-66
2023/01/15 15:39:03;;;;;;;1.00;0.55;;;;;;;6.48;78.86;99578.06;4993578;28;20180;-66
2023/01/15 15:50:25;;;;;;;1.10;0.50;;;;;;;6.66;75.03;99567.34;4960702;28;20054;-69
2023/01/15 15:52:51;;;;;;;0.95;0.50;;;;;;;6.61;75.96;99567.81;4993650;28;20042;-64
2023/01/15 15:55:20;;;;;;;0.57;0.57;;;;;;;6.64;75.61;99567.47;4993659;28;20403;-65
2023/01/15 15:57:53;;;;;;;0.40;0.38;;;;;;;6.69;75.28;99561.69;4993712;28;20420;-66
2023/01/15 16:00:32;;;;;;;0.90;0.60;;;;;;;6.71;75.08;99570.28;4993470;28;20480;-65
2023/01/15 16:03:04;;;;;;;0.50;0.50;;;;;;;6.67;74.56;99561.88;4993746;28;20077;-64
2023/01/15 16:05:31;;;;;;;0.95;0.50;;;;;;;6.70;74.06;99564.19;4992846;28;20042;-65
2023/01/15 16:08:16;;;;;;;0.50;0.50;;;;;;;6.72;74.80;99556.09;4993147;28;20034;-64
2023/01/15 16:10:43;;;;;;;0.43;0.43;;;;;;;6.72;74.31;99551.63;4975970;28;20042;-67
2023/01/15 16:13:21;;;;;;;0.40;0.40;;;;;;;6.68;73.86;99554.75;4994632;28;20101;-72
2023/01/15 16:15:49;;;;;;;0.68;0.65;;;;;;;6.64;74.83;99541.00;4993378;28;20038;-70
2023/01/15 16:18:26;;;;;;;;;;;;;;;6.63;75.62;99544.66;4993586;28;20051;-69
2023/01/15 16:20:53;;;;;;;0.55;0.55;;;;;;;6.59;75.81;99545.19;4993245;28;19913;-69
2023/01/15 16:23:24;;;;;;;1.30;0.68;;;;;;;6.58;75.09;99539.03;4993249;28;20074;-71
2023/01/15 16:26:14;;;;;;;0.40;0.40;;;;;;;6.60;74.46;99534.41;4993211;28;20566;-69
2023/01/15 16:28:46;;;;;;;0.65;0.40;;;;;;;6.61;74.38;99535.25;4992684;28;20403;-70
2023/01/15 16:31:15;;;;;;;1.63;0.60;;;;;;;6.60;74.06;99528.31;4993152;28;20498;-70
2023/01/15 16:33:40;;;;;;;0.47;0.47;;;;;;;6.55;73.73;99536.72;4993075;28;20082;-73
2023/01/15 16:36:07;;;;;;;0.47;0.40;;;;;;;6.59;73.26;99531.94;4993046;28;20085;-69
2023/01/15 16:38:39;;;;;;;1.27;0.50;;;;;;;6.52;74.17;99524.66;4992531;28;20030;-70
2023/01/15 16:41:05;;;;;;;0.60;0.32;;;;;;;6.44;73.33;99516.69;4993172;28;20105;-70
2023/01/15 16:43:30;;;;;;;0.35;0.35;;;;;;;6.56;72.09;99527.78;4992974;28;20479;-70
2023/01/15 16:46:02;;;;;;;1.42;0.40;;;;;;;6.54;72.29;99527.13;4992949;28;20065;-69
2023/01/15 16:48:36;;;;;;;0.50;0.47;;;;;;;6.45;72.98;99522.81;4992286;28;20053;-68
2023/01/15 16:51:29;;;;;;;0.95;0.38;;;;;;;6.50;72.15;99523.97;4992731;28;20030;-66
2023/01/15 16:53:55;;;;;;;0.77;0.75;;;;;;;6.55;71.01;99533.25;4992744;28;20406;-67
2023/01/15 16:56:45;;;;;;;1.58;0.43;;;;;;;6.55;70.99;99534.06;4992707;28;20113;-66
2023/01/15 16:59:39;;;;;;;2.50;0.38;;;;;;;6.58;69.83;99525.78;4991879;28;20073;-66
2023/01/15 17:02:13;;;;;;;0.70;0.40;;;;;;;6.59;69.75;99518.72;4992544;28;20030;-64
2023/01/15 17:04:41;;;;;;;0.52;0.52;;;;;;;6.57;69.58;99521.50;4992633;28;20034;-65
2023/01/15 17:07:13;;;;;;;1.10;0.50;;;;;;;6.53;70.49;99526.31;4992482;28;20566;-67
2023/01/15 17:09:44;;;;;;;0.30;0.30;;;;;;;6.61;70.11;99528.13;4992490;28;20093;-64
2023/01/15 17:12:27;;;;;;;0.52;0.50;;;;;;;6.65;68.79;99524.16;4975222;28;20034;-65
2023/01/15 17:14:53;;;;;;;1.38;1.00;;;;;;;6.62;69.74;99524.47;4974977;28;20039;-65
2023/01/15 17:17:21;;;;;;;0.57;0.38;;;;;;;6.65;69.43;99526.81;4991897;28;20341;-66
2023/01/15 17:19:51;;;;;;;0.57;0.43;;;;;;;6.66;69.25;99512.59;4992238;28;20038;-65
2023/01/15 17:22:29;;;;;;;0.95;0.50;;;;;;;6.68;69.36;99515.88;4992283;28;20034;-66
2023/01/15 17:24:55;;;;;;;;;;;;;;;6.65;70.15;99499.50;4975449;28;20034;-66
2023/01/15 17:27:22;;;;;;;1.15;0.57;;;;;;;6.61;70.17;99503.47;4992806;28;19928;-66
2023/01/15 17:29:47;;;;;;;0.57;0.57;;;;;;;6.64;69.20;99498.66;4992235;28;20137;-67
2023/01/15 17:32:16;;;;;;;1.65;0.93;;;;;;;6.63;69.82;99517.38;4992216;28;20130;-65
2023/01/15 17:34:41;;;;;;;0.40;0.40;;;;;;;6.63;69.06;99509.44;4992336;28;20039;-67
2023/01/15 17:37:07;;;;;;;0.43;0.40;;;;;;;6.65;69.22;99504.78;4991947;28;20030;-67
2023/01/15 17:39:32;;;;;;;0.65;0.40;;;;;;;6.60;69.75;99505.31;4991840;28;20034;-66
2023/01/15 17:41:58;;;;;;;0.38;0.38;;;;;;;6.61;68.87;99499.00;4992282;28;20039;-67
2023/01/15 17:44:24;;;;;;;0.60;0.60;;;;;;;6.61;68.11;99511.44;4992108;28;20508;-67
2023/01/15 17:46:49;;;;;;;0.15;0.15;;;;;;;6.62;68.56;99497.19;4992102;28;20100;-67
2023/01/15 17:49:15;;;;;;;0.50;0.50;;;;;;;6.60;68.37;99510.59;4991990;28;20050;-63
2023/01/15 17:51:41;;;;;;;0.85;0.40;;;;;;;6.51;69.53;99501.00;4992125;28;20038;-67
2023/01/15 17:54:06;;;;;;;2.58;0.57;;;;;;;6.47;70.31;99494.41;4991996;28;20050;-68
2023/01/15 18:07:39;;;;;;;1.42;0.45;;;;;;;6.46;70.01;99482.16;4991686;28;20043;-64
2023/01/15 18:10:16;;;;;;;0.50;0.50;;;;;;;6.44;70.59;99490.25;4991992;28;20049;-64
2023/01/15 18:12:41;;;;;;;1.13;0.60;;;;;;;6.46;71.14;99475.03;4975019;28;20043;-66
2023/01/15 18:15:07;;;;;;;0.45;0.45;;;;;;;6.46;71.84;99475.03;4992282;28;20042;-64
2023/01/15 18:17:32;;;;;;;1.17;0.35;;;;;;;6.48;70.57;99482.81;4991900;28;20551;-64
2023/01/15 18:19:58;;;;;;;1.13;0.60;;;;;;;6.47;70.70;99468.75;4974502;28;20092;-64
2023/01/15 18:22:23;;;;;;;0.47;0.47;;;;;;;6.44;70.82;99474.38;4991864;28;20073;-68
2023/01/15 18:24:48;;;;;;;1.38;1.02;;;;;;;6.39;70.87;99482.00;4991949;28;20058;-65
2023/01/15 18:27:14;;;;;;;1.02;0.60;;;;;;;6.43;70.91;99475.34;4991573;28;20027;-68
2023/01/15 18:29:39;;;;;;;0.80;0.70;;;;;;;6.44;70.70;99469.06;4977686;28;20554;-66
2023/01/15 18:32:07;;;;;;;4.10;1.35;;;;;;;6.30;72.04;99464.44;4995253;28;20038;-66
2023/01/15 18:34:32;;;;;;;0.35;0.35;;;;;;;6.32;72.60;99461.63;4995289;28;20042;-67
2023/01/15 18:36:58;;;;;;;1.58;0.82;;;;;;;6.33;71.88;99460.66;4995197;28;20376;-70
2023/01/15 18:39:23;;;;;;;0.60;0.50;;;;;;;6.28;72.61;99474.38;4977403;28;20039;-65
2023/01/15 18:47:05;;;;;;;2.80;0.52;;;;;;;6.25;72.39;99459.63;4994959;28;20042;-66
2023/01/15 18:49:30;;;;;;;0.50;0.50;;;;;;;6.20;73.15;99451.41;4994739;28;20039;-67
2023/01/15 18:54:41;;;;;;;0.82;0.65;;;;;;;6.22;71.91;99441.47;4995108;28;20038;-67
2023/01/15 18:57:07;;;;;;;0.75;0.60;;;;;;;6.19;72.98;99433.03;4997261;28;20734;-70